Time;durP1;ratioP1;P1;durP2;ratioP2;P2;SDS_P1;SDS_P2;PMS_P1;PMS_P2;Temp;Humidity;BMP_temperature;BMP_pressure;BME280_temperature;BME280_humidity;BME280_pressure;Samples;Min_cycle;Max_cycle;Signal;HPM_P1;HPM_P2
2022/09/11 00:00:42;;;;;;;7.22;4.53;;;22.10;70.80;;;;;;5091351;28;20051;-64
2022/09/11 00:03:08;;;;;;;7.03;4.53;;;22.10;70.70;;;;;;5092105;28;20519;-64
2022/09/11 00:05:40;;;;;;;5.95;4.38;;;22.10;70.70;;;;;;5092451;28;20468;-65
2022/09/11 00:08:10;;;;;;;6.65;4.50;;;22.10;70.70;;;;;;5091419;28;20127;-65
2022/09/11 00:10:38;;;;;;;6.05;4.25;;;22.10;70.70;;;;;;5089434;28;20133;-65
2022/09/11 00:13:10;;;;;;;6.05;4.68;;;22.10;70.70;;;;;;5092158;28;20071;-65
2022/09/11 00:15:37;;;;;;;5.63;3.97;;;22.10;70.70;;;;;;5091628;28;20044;-65
2022/09/11 00:18:04;;;;;;;6.07;4.75;;;22.10;70.70;;;;;;5092055;28;20080;-64
2022/09/11 00:20:31;;;;;;;7.55;4.45;;;22.10;70.70;;;;;;5091797;28;20055;-64
2022/09/11 00:22:57;;;;;;;5.90;4.57;;;22.10;70.70;;;;;;5091434;28;20040;-65
2022/09/11 00:25:22;;;;;;;6.35;4.55;;;22.10;70.60;;;;;;5092016;28;20052;-64
2022/09/11 00:27:50;;;;;;;5.97;4.10;;;22.10;70.60;;;;;;5092196;28;20059;-64
2022/09/11 00:30:19;;;;;;;6.30;4.30;;;22.10;70.60;;;;;;5091063;28;20052;-65
2022/09/11 00:32:44;;;;;;;;;;;22.10;70.60;;;;;;5092475;28;20040;-64
2022/09/11 00:35:10;;;;;;;5.45;4.15;;;22.10;70.50;;;;;;5091389;28;19973;-64
2022/09/11 00:37:35;;;;;;;6.78;3.80;;;22.00;70.60;;;;;;5091111;28;20131;-64
2022/09/11 00:40:01;;;;;;;6.18;4.32;;;22.10;70.60;;;;;;5092181;28;20048;-65
2022/09/11 00:42:26;;;;;;;7.13;4.70;;;22.10;70.60;;;;;;5091444;28;20052;-65
2022/09/11 00:44:59;;;;;;;6.70;4.88;;;22.00;70.50;;;;;;5091199;28;20077;-65
2022/09/11 00:47:25;;;;;;;7.13;5.10;;;22.00;70.50;;;;;;5090401;28;20070;-65
2022/09/11 00:49:53;;;;;;;5.55;4.03;;;22.00;70.50;;;;;;5089858;28;20041;-65
2022/09/11 00:52:26;;;;;;;6.65;4.93;;;22.00;70.50;;;;;;5107302;28;20036;-65
2022/09/11 00:55:02;;;;;;;7.30;4.20;;;22.00;70.50;;;;;;5090547;28;20181;-65
2022/09/11 00:57:35;;;;;;;6.25;4.47;;;22.00;70.50;;;;;;5089627;28;20044;-65
2022/09/11 01:00:01;;;;;;;6.93;4.43;;;22.00;70.40;;;;;;5090792;28;20589;-65
2022/09/11 01:02:27;;;;;;;6.50;4.82;;;22.00;70.50;;;;;;5090010;28;20126;-65
2022/09/11 01:04:53;;;;;;;7.72;5.10;;;22.00;70.60;;;;;;5090012;28;20486;-65
2022/09/11 01:07:22;;;;;;;6.30;4.90;;;22.00;70.50;;;;;;5091381;28;20048;-65
2022/09/11 01:09:48;;;;;;;5.72;4.43;;;22.00;70.50;;;;;;5108155;28;20069;-65
2022/09/11 01:12:19;;;;;;;6.22;4.43;;;22.00;70.50;;;;;;5090460;28;20040;-65
2022/09/11 01:14:46;;;;;;;7.40;4.82;;;21.90;70.40;;;;;;5090587;28;20487;-65
2022/09/11 01:17:21;;;;;;;5.93;4.32;;;21.90;70.40;;;;;;5089968;28;20395;-65
2022/09/11 01:20:25;;;;;;;6.35;4.40;;;21.90;70.40;;;;;;5090819;28;20074;-65
2022/09/11 01:23:18;;;;;;;7.00;4.93;;;21.90;70.30;;;;;;5090670;28;20094;-65
2022/09/11 01:26:05;;;;;;;6.72;4.70;;;21.90;70.30;;;;;;5090777;28;20044;-66
2022/09/11 01:28:36;;;;;;;5.70;4.28;;;22.00;70.30;;;;;;5090125;28;20044;-65
2022/09/11 01:31:09;;;;;;;7.15;4.95;;;21.90;70.30;;;;;;5108174;28;20093;-65
2022/09/11 01:33:43;;;;;;;6.90;4.40;;;21.90;70.30;;;;;;5106766;28;20403;-66
2022/09/11 01:36:31;;;;;;;9.52;5.47;;;21.90;70.30;;;;;;5090831;28;20093;-66
2022/09/11 01:39:03;;;;;;;6.47;4.32;;;22.00;70.30;;;;;;5094520;28;20052;-65
2022/09/11 01:41:42;;;;;;;6.00;4.50;;;21.90;70.30;;;;;;5110390;27;20083;-66
2022/09/11 01:44:11;;;;;;;6.50;4.72;;;21.90;70.30;;;;;;5111782;27;20036;-65
2022/09/11 01:46:42;;;;;;;6.60;4.93;;;21.90;70.30;;;;;;5075952;28;20505;-66
2022/09/11 01:49:11;;;;;;;6.85;4.72;;;21.90;70.30;;;;;;5110501;28;20040;-65
2022/09/11 01:51:39;;;;;;;6.78;4.63;;;21.90;70.20;;;;;;5093728;28;20044;-65
2022/09/11 01:54:11;;;;;;;6.90;5.03;;;21.90;70.20;;;;;;5093012;28;20135;-65
2022/09/11 01:56:40;;;;;;;6.75;4.95;;;21.90;70.20;;;;;;5093571;28;20047;-65
2022/09/11 01:59:07;;;;;;;6.22;4.53;;;21.90;70.20;;;;;;5093331;28;20411;-65
2022/09/11 02:01:34;;;;;;;6.90;4.85;;;21.80;70.20;;;;;;5075841;28;20085;-65
2022/09/11 02:04:09;;;;;;;6.75;4.85;;;21.80;70.10;;;;;;5093048;28;20052;-65
2022/09/11 02:06:49;;;;;;;7.18;5.13;;;21.90;70.10;;;;;;5093060;28;20119;-65
2022/09/11 02:09:17;;;;;;;6.30;4.75;;;21.90;70.10;;;;;;5075288;28;20453;-65
2022/09/11 02:11:43;;;;;;;6.97;4.80;;;21.80;70.10;;;;;;5110530;28;20042;-65
2022/09/11 02:14:28;;;;;;;6.57;5.13;;;21.80;70.10;;;;;;5091733;28;20040;-65
2022/09/11 02:17:16;;;;;;;7.25;5.60;;;21.80;70.00;;;;;;5093365;28;20058;-65
2022/09/11 02:19:42;;;;;;;6.40;4.72;;;21.80;70.10;;;;;;5093281;28;20047;-65
2022/09/11 02:22:07;;;;;;;5.90;4.47;;;21.80;70.10;;;;;;5109175;28;20043;-65
2022/09/11 02:24:33;;;;;;;6.38;4.78;;;21.80;70.10;;;;;;5094183;28;20130;-65
2022/09/11 02:27:04;;;;;;;6.70;5.05;;;21.80;70.10;;;;;;5109882;27;20047;-65
2022/09/11 02:29:30;;;;;;;6.38;4.32;;;21.80;70.00;;;;;;5093154;28;20100;-65
2022/09/11 02:31:59;;;;;;;6.47;4.53;;;21.80;70.10;;;;;;5092541;28;20051;-65
2022/09/11 02:34:28;;;;;;;6.25;4.95;;;21.80;70.00;;;;;;5093508;28;20097;-65
2022/09/11 02:37:06;;;;;;;5.70;4.45;;;21.80;70.00;;;;;;5091938;28;20044;-65
2022/09/11 02:39:56;;;;;;;6.53;4.75;;;21.80;70.00;;;;;;5092655;28;20097;-66
2022/09/11 02:42:47;;;;;;;6.95;5.05;;;21.80;70.00;;;;;;5092947;28;20096;-65
2022/09/11 02:45:34;;;;;;;6.05;4.75;;;21.80;70.00;;;;;;5091719;28;20062;-65
2022/09/11 02:48:12;;;;;;;6.57;4.85;;;21.80;70.00;;;;;;5092654;28;20040;-65
2022/09/11 02:50:45;;;;;;;5.68;4.38;;;21.80;70.00;;;;;;5091555;28;20048;-65
2022/09/11 02:53:32;;;;;;;6.70;4.63;;;21.80;70.00;;;;;;5092226;28;20044;-65
2022/09/11 02:56:18;;;;;;;7.00;4.93;;;21.80;69.90;;;;;;5110845;27;20056;-65
2022/09/11 02:58:54;;;;;;;6.68;4.70;;;21.80;69.90;;;;;;5092427;28;20048;-65
2022/09/11 03:01:20;;;;;;;6.85;5.07;;;21.80;70.00;;;;;;5092172;28;20613;-65
2022/09/11 03:03:45;;;;;;;5.68;4.40;;;21.80;70.00;;;;;;5092397;28;20131;-65
2022/09/11 03:06:14;;;;;;;7.07;4.80;;;21.80;70.00;;;;;;5093206;28;20036;-66
2022/09/11 03:08:40;;;;;;;7.30;5.05;;;21.80;69.90;;;;;;5093549;28;20052;-65
2022/09/11 03:11:08;;;;;;;6.53;5.15;;;21.80;69.90;;;;;;5092604;28;20089;-65
2022/09/11 03:13:33;;;;;;;5.82;4.25;;;21.80;69.90;;;;;;5093393;28;20492;-65
2022/09/11 03:16:03;;;;;;;6.22;4.63;;;21.70;69.90;;;;;;5093504;28;20054;-65
2022/09/11 03:18:29;;;;;;;6.18;4.60;;;21.80;69.90;;;;;;5092059;28;20044;-66
2022/09/11 03:20:57;;;;;;;6.90;4.45;;;21.70;69.80;;;;;;5093033;28;20048;-65
2022/09/11 03:23:24;;;;;;;;;;;21.70;69.80;;;;;;5093076;28;20460;-66
2022/09/11 03:25:49;;;;;;;6.13;4.63;;;21.70;69.80;;;;;;5092349;28;20355;-65
2022/09/11 03:28:15;;;;;;;6.40;4.68;;;21.70;69.90;;;;;;5092715;28;20082;-65
2022/09/11 03:30:41;;;;;;;6.22;4.30;;;21.70;69.90;;;;;;5091837;28;20071;-65
2022/09/11 03:33:07;;;;;;;5.68;4.47;;;21.70;69.90;;;;;;5090475;28;20048;-65
2022/09/11 03:35:32;;;;;;;6.47;4.72;;;21.70;69.90;;;;;;5092780;28;20085;-65
2022/09/11 03:38:00;;;;;;;;;;;21.70;69.90;;;;;;5093106;28;20052;-65
2022/09/11 03:40:26;;;;;;;6.13;4.60;;;21.70;69.80;;;;;;5091840;28;19928;-65
2022/09/11 03:42:52;;;;;;;7.40;5.38;;;21.70;69.90;;;;;;5092771;28;20483;-65
2022/09/11 03:45:18;;;;;;;5.50;4.05;;;21.70;69.90;;;;;;5092590;28;20044;-65
2022/09/11 03:47:44;;;;;;;5.60;4.32;;;21.70;69.90;;;;;;5091841;28;20076;-66
2022/09/11 03:50:10;;;;;;;5.88;4.20;;;21.70;69.90;;;;;;5091884;28;20067;-65
2022/09/11 03:52:38;;;;;;;6.70;4.93;;;21.70;69.90;;;;;;5091490;28;20442;-65
2022/09/11 03:55:04;;;;;;;6.40;4.40;;;21.70;69.90;;;;;;5092478;28;20044;-65
2022/09/11 03:57:37;;;;;;;6.38;4.40;;;21.70;69.90;;;;;;5092152;28;20127;-65
2022/09/11 04:00:04;;;;;;;5.88;4.07;;;21.70;70.50;;;;;;5090236;28;20051;-65
2022/09/11 04:02:30;;;;;;;6.35;4.60;;;21.70;69.90;;;;;;5091271;28;20043;-65
2022/09/11 04:04:56;;;;;;;5.35;3.80;;;21.70;69.90;;;;;;5091777;28;20048;-65
2022/09/11 04:07:22;;;;;;;6.57;4.75;;;21.70;69.80;;;;;;5123810;27;20047;-65
2022/09/11 04:09:47;;;;;;;5.85;4.38;;;21.70;69.80;;;;;;5092371;28;20129;-66
2022/09/11 04:12:13;;;;;;;6.68;4.35;;;21.70;69.80;;;;;;5092266;28;20380;-65
2022/09/11 04:14:38;;;;;;;6.28;4.15;;;21.60;69.70;;;;;;5091193;28;20488;-65
2022/09/11 04:17:06;;;;;;;5.95;4.40;;;21.70;69.80;;;;;;5091884;28;20488;-65
2022/09/11 04:19:32;;;;;;;;;;;21.60;69.70;;;;;;5092588;28;20039;-65
2022/09/11 04:21:58;;;;;;;5.82;4.28;;;21.60;69.70;;;;;;5091614;28;20284;-65
2022/09/11 04:24:27;;;;;;;5.93;4.22;;;21.60;69.80;;;;;;5091759;28;20043;-65
2022/09/11 04:26:52;;;;;;;6.50;4.20;;;21.60;69.70;;;;;;5092432;28;20044;-65
2022/09/11 04:29:19;;;;;;;5.78;4.07;;;21.60;69.70;;;;;;5091291;28;20040;-65
2022/09/11 04:31:44;;;;;;;5.57;4.40;;;21.60;69.70;;;;;;5091912;28;20040;-66
2022/09/11 04:34:10;;;;;;;5.10;3.80;;;21.60;69.70;;;;;;5091489;28;20591;-65
2022/09/11 04:36:36;;;;;;;5.85;3.97;;;21.60;69.70;;;;;;5091059;28;20115;-65
2022/09/11 04:39:02;;;;;;;6.68;4.47;;;21.60;69.70;;;;;;5092309;28;20131;-66
2022/09/11 04:41:30;;;;;;;5.75;4.07;;;21.60;69.70;;;;;;5091399;28;20050;-65
2022/09/11 04:43:57;;;;;;;5.53;4.20;;;21.60;69.70;;;;;;5091315;28;20040;-65
2022/09/11 04:46:25;;;;;;;5.80;4.20;;;21.60;69.70;;;;;;5091368;28;20510;-65
2022/09/11 04:48:52;;;;;;;6.30;4.50;;;21.60;69.70;;;;;;5091235;28;20052;-66
2022/09/11 04:51:20;;;;;;;5.25;3.67;;;21.60;69.60;;;;;;5091532;28;20545;-66
2022/09/11 04:53:46;;;;;;;5.95;4.15;;;21.60;69.60;;;;;;5090878;28;20119;-65
2022/09/11 04:56:13;;;;;;;5.75;3.90;;;21.60;69.60;;;;;;5090815;28;20134;-65
2022/09/11 04:58:39;;;;;;;5.20;3.88;;;21.60;69.70;;;;;;5091867;28;20086;-66
2022/09/11 05:01:14;;;;;;;5.90;4.32;;;21.60;69.60;;;;;;5091688;28;20495;-66
2022/09/11 05:03:42;;;;;;;5.85;4.00;;;21.60;69.60;;;;;;5091173;28;20040;-65
2022/09/11 05:06:09;;;;;;;5.35;3.97;;;21.60;69.70;;;;;;5091668;28;20044;-67
2022/09/11 05:08:35;;;;;;;6.18;4.13;;;21.60;69.70;;;;;;5091725;28;20044;-65
2022/09/11 05:11:04;;;;;;;5.68;4.07;;;21.60;69.60;;;;;;5091478;28;20051;-65
2022/09/11 05:13:30;;;;;;;5.80;3.83;;;21.60;69.60;;;;;;5095408;28;20188;-65
2022/09/11 05:16:05;;;;;;;4.85;3.70;;;21.60;69.60;;;;;;5095772;28;20044;-65
2022/09/11 05:18:34;;;;;;;5.85;3.95;;;21.60;69.60;;;;;;5094336;28;20044;-65
2022/09/11 05:21:01;;;;;;;6.20;4.20;;;21.60;69.60;;;;;;5095601;28;20044;-66
2022/09/11 05:23:27;;;;;;;5.05;3.75;;;21.60;69.60;;;;;;5093775;28;20063;-65
2022/09/11 05:26:00;;;;;;;6.10;4.55;;;21.60;69.60;;;;;;5094711;28;20046;-66
2022/09/11 05:28:26;;;;;;;4.90;3.53;;;21.60;69.60;;;;;;5095137;28;20177;-65
2022/09/11 05:30:53;;;;;;;5.18;3.85;;;21.60;69.60;;;;;;5095408;28;20131;-66
2022/09/11 05:33:19;;;;;;;5.88;4.18;;;21.60;69.60;;;;;;5094281;28;20040;-65
2022/09/11 05:35:45;;;;;;;5.70;3.90;;;21.60;69.60;;;;;;5093871;28;20048;-65
2022/09/11 05:38:14;;;;;;;5.40;3.80;;;21.60;69.60;;;;;;5093788;28;20078;-65
2022/09/11 05:40:48;;;;;;;4.60;3.38;;;21.50;69.50;;;;;;5095133;28;20055;-65
2022/09/11 05:43:14;;;;;;;5.47;3.63;;;21.60;69.60;;;;;;5094926;28;20051;-65
2022/09/11 05:45:41;;;;;;;5.22;3.72;;;21.50;69.50;;;;;;5094405;28;20063;-65
2022/09/11 05:48:07;;;;;;;5.18;3.53;;;21.50;69.50;;;;;;5094812;28;20117;-65
2022/09/11 05:50:33;;;;;;;5.10;3.70;;;21.50;69.50;;;;;;5095061;28;20063;-65
2022/09/11 05:52:59;;;;;;;6.15;4.07;;;21.50;69.50;;;;;;5093929;28;20455;-65
2022/09/11 05:55:24;;;;;;;5.35;3.85;;;21.50;69.50;;;;;;5094509;28;20438;-65
2022/09/11 05:57:53;;;;;;;5.63;3.70;;;21.50;69.50;;;;;;5095144;28;20422;-65
2022/09/11 06:00:19;;;;;;;5.13;3.50;;;21.50;69.50;;;;;;5094120;28;20044;-65
2022/09/11 06:02:45;;;;;;;4.55;3.47;;;21.50;69.50;;;;;;5094516;28;20196;-65
2022/09/11 06:05:11;;;;;;;4.93;3.53;;;21.50;69.50;;;;;;5094279;28;20040;-65
2022/09/11 06:07:37;;;;;;;5.13;4.00;;;21.50;69.50;;;;;;5093601;28;20422;-65
2022/09/11 06:10:02;;;;;;;5.05;3.47;;;21.50;69.50;;;;;;5094508;28;20051;-66
2022/09/11 06:12:28;;;;;;;5.03;3.72;;;21.50;69.50;;;;;;5093058;28;20048;-65
2022/09/11 06:14:53;;;;;;;5.20;3.63;;;21.50;69.50;;;;;;5093503;28;20551;-65
2022/09/11 06:17:23;;;;;;;5.30;3.50;;;21.50;69.50;;;;;;5094015;28;20522;-65
2022/09/11 06:19:48;;;;;;;4.60;3.50;;;21.50;69.50;;;;;;5093950;28;20048;-65
2022/09/11 06:22:14;;;;;;;3.80;2.92;;;21.50;69.40;;;;;;5091474;28;20035;-65
2022/09/11 06:24:39;;;;;;;5.22;3.63;;;21.50;69.50;;;;;;5094154;28;20047;-64
2022/09/11 06:27:05;;;;;;;5.05;3.60;;;21.50;69.50;;;;;;5093963;28;20400;-64
2022/09/11 06:29:31;;;;;;;4.80;3.38;;;21.50;69.50;;;;;;5093412;28;20060;-64
2022/09/11 06:31:58;;;;;;;5.13;3.58;;;21.50;69.40;;;;;;5092524;28;20052;-65
2022/09/11 06:34:24;;;;;;;4.82;3.42;;;21.50;69.50;;;;;;5092975;28;20036;-64
2022/09/11 06:36:50;;;;;;;4.82;3.33;;;21.50;69.60;;;;;;5093787;28;20109;-64
2022/09/11 06:39:15;;;;;;;5.13;3.30;;;21.50;69.70;;;;;;5093621;28;20052;-64
2022/09/11 06:41:41;;;;;;;5.18;3.30;;;21.50;69.70;;;;;;5093151;28;20048;-64
2022/09/11 06:44:08;;;;;;;4.70;3.42;;;21.50;69.70;;;;;;5092492;28;20048;-64
2022/09/11 06:46:34;;;;;;;4.75;3.10;;;21.50;69.80;;;;;;5093746;28;20499;-64
2022/09/11 06:49:02;;;;;;;4.10;3.03;;;21.60;69.90;;;;;;5093050;28;20121;-64
2022/09/11 06:51:31;;;;;;;5.75;3.38;;;21.60;70.00;;;;;;5093248;28;20385;-63
2022/09/11 06:53:57;;;;;;;6.25;3.60;;;21.60;70.00;;;;;;5093555;28;20408;-64
2022/09/11 06:56:23;;;;;;;5.38;3.42;;;21.60;70.00;;;;;;5092796;28;20048;-64
2022/09/11 06:58:51;;;;;;;4.85;3.42;;;21.60;70.10;;;;;;5093215;28;20044;-62
2022/09/11 07:01:18;;;;;;;5.40;3.35;;;21.60;70.10;;;;;;5093255;28;20047;-64
2022/09/11 07:03:51;;;;;;;4.88;3.72;;;21.60;70.10;;;;;;5091496;28;20060;-63
2022/09/11 07:06:22;;;;;;;6.75;3.40;;;21.60;70.00;;;;;;5072253;28;20056;-63
2022/09/11 07:08:57;;;;;;;6.18;3.38;;;21.60;70.20;;;;;;5073025;28;20056;-63
2022/09/11 07:11:23;;;;;;;5.93;3.72;;;21.70;70.30;;;;;;5071818;28;20083;-62
2022/09/11 07:13:48;;;;;;;4.82;3.13;;;21.70;70.20;;;;;;5077103;28;20436;-63
2022/09/11 07:16:15;;;;;;;4.32;3.00;;;21.70;70.30;;;;;;5092067;28;20043;-64
2022/09/11 07:18:42;;;;;;;4.18;2.85;;;21.70;70.30;;;;;;5092124;28;20047;-63
2022/09/11 07:21:12;;;;;;;5.35;3.10;;;21.70;70.30;;;;;;5091400;28;20126;-63
2022/09/11 07:23:38;;;;;;;7.00;3.50;;;21.70;70.40;;;;;;5092334;28;20086;-63
2022/09/11 07:26:05;;;;;;;7.15;3.33;;;21.80;70.50;;;;;;5092856;28;20044;-63
2022/09/11 07:28:30;;;;;;;6.38;3.20;;;21.80;70.50;;;;;;5091872;28;20459;-63
2022/09/11 07:31:10;;;;;;;4.97;3.30;;;21.80;70.60;;;;;;5091565;28;20044;-64
2022/09/11 07:33:37;;;;;;;4.80;2.97;;;21.80;70.70;;;;;;5092143;28;20044;-63
2022/09/11 07:36:12;;;;;;;6.18;3.08;;;21.80;70.70;;;;;;5092107;28;20059;-64
2022/09/11 07:38:42;;;;;;;5.28;3.05;;;21.90;70.80;;;;;;5091097;28;20123;-64
2022/09/11 07:41:08;;;;;;;5.00;2.90;;;21.90;70.80;;;;;;5091349;28;20059;-64
2022/09/11 07:43:35;;;;;;;8.50;3.10;;;21.80;70.70;;;;;;5092058;28;20070;-65
2022/09/11 07:46:01;;;;;;;5.80;2.70;;;21.90;70.80;;;;;;5091376;28;20058;-64
2022/09/11 07:48:26;;;;;;;6.57;3.45;;;21.90;70.80;;;;;;5092137;28;20048;-63
2022/09/11 07:51:01;;;;;;;6.72;3.15;;;21.90;70.80;;;;;;5092492;28;20394;-64
2022/09/11 07:53:27;;;;;;;7.30;3.42;;;21.90;70.90;;;;;;5091561;28;20596;-64
2022/09/11 07:55:54;;;;;;;5.93;3.03;;;21.90;70.90;;;;;;5092420;28;20487;-65
2022/09/11 07:58:20;;;;;;;8.27;3.87;;;21.90;70.80;;;;;;5092219;28;20408;-64
2022/09/11 08:00:46;;;;;;;7.60;3.50;;;22.00;70.80;;;;;;5091662;28;20040;-63
2022/09/11 08:03:11;;;;;;;10.75;3.10;;;22.00;70.80;;;;;;5090680;28;20446;-64
2022/09/11 08:05:37;;;;;;;4.47;2.90;;;22.00;70.90;;;;;;5092613;28;20050;-63
2022/09/11 08:08:02;;;;;;;6.70;3.00;;;22.00;71.00;;;;;;5091374;28;20032;-63
2022/09/11 08:10:28;;;;;;;5.35;3.25;;;22.10;71.10;;;;;;5091492;28;20036;-63
2022/09/11 08:12:53;;;;;;;5.70;2.80;;;22.10;71.20;;;;;;5091471;28;20594;-63
2022/09/11 08:15:20;;;;;;;3.78;2.55;;;22.10;71.10;;;;;;5091866;28;20044;-67
2022/09/11 08:17:50;;;;;;;6.53;2.63;;;22.10;71.00;;;;;;5092023;28;20072;-64
2022/09/11 08:20:16;;;;;;;3.55;2.40;;;22.10;71.00;;;;;;5090966;28;20047;-64
2022/09/11 08:22:42;;;;;;;4.40;2.72;;;22.10;71.00;;;;;;5089632;28;20088;-64
2022/09/11 08:25:07;;;;;;;5.03;2.70;;;22.20;71.10;;;;;;5090985;28;20043;-65
2022/09/11 08:27:34;;;;;;;5.25;2.78;;;22.20;71.10;;;;;;5089188;28;20047;-64
2022/09/11 08:30:00;;;;;;;5.50;2.50;;;22.20;71.00;;;;;;5091658;28;20407;-64
2022/09/11 08:32:26;;;;;;;5.32;2.55;;;22.20;70.90;;;;;;5090547;28;20532;-64
2022/09/11 08:34:52;;;;;;;4.85;2.55;;;22.20;70.80;;;;;;5089537;28;20415;-64
2022/09/11 08:37:18;;;;;;;5.65;2.63;;;22.20;70.80;;;;;;5090623;28;20059;-64
2022/09/11 08:39:43;;;;;;;3.58;2.33;;;22.20;70.70;;;;;;5092080;28;20095;-64
2022/09/11 08:42:12;;;;;;;5.82;2.92;;;22.30;70.70;;;;;;5090714;28;20044;-64
2022/09/11 08:44:46;;;;;;;4.70;2.80;;;22.30;70.70;;;;;;5090526;28;20040;-65
2022/09/11 08:47:17;;;;;;;3.92;2.70;;;22.30;70.60;;;;;;5094337;28;20101;-65
2022/09/11 08:49:47;;;;;;;6.78;2.35;;;22.30;70.50;;;;;;5060995;28;20052;-65
2022/09/11 08:52:14;;;;;;;3.53;2.38;;;22.40;70.50;;;;;;5094652;28;20491;-65
2022/09/11 08:54:43;;;;;;;4.50;2.88;;;22.40;70.50;;;;;;5077709;28;20079;-64
2022/09/11 08:57:38;;;;;;;3.40;2.25;;;22.40;70.40;;;;;;5093237;28;20093;-64
2022/09/11 09:00:17;;;;;;;4.45;2.53;;;22.40;70.30;;;;;;5094677;28;20120;-66
2022/09/11 09:03:07;;;;;;;5.97;2.75;;;22.40;70.30;;;;;;5093789;28;20051;-64
2022/09/11 09:05:55;;;;;;;4.38;2.28;;;22.50;70.20;;;;;;5094940;28;20040;-65
2022/09/11 09:09:02;;;;;;;6.85;2.70;;;22.50;70.20;;;;;;5092967;28;20044;-63
2022/09/11 09:11:52;;;;;;;6.03;2.80;;;22.50;70.50;;;;;;5070837;28;20060;-63
2022/09/11 09:14:55;;;;;;;7.20;2.90;;;22.50;70.70;;;;;;5076720;28;20052;-64
2022/09/11 09:17:28;;;;;;;5.05;2.83;;;22.60;70.80;;;;;;5001160;28;20049;-64
2022/09/11 09:19:59;;;;;;;4.65;2.80;;;22.60;70.70;;;;;;4972254;28;20108;-64
2022/09/11 09:22:43;;;;;;;6.82;2.70;;;22.60;70.80;;;;;;5002253;28;20038;-64
2022/09/11 09:25:11;;;;;;;5.13;2.60;;;22.70;70.80;;;;;;5031484;28;20064;-64
2022/09/11 09:27:46;;;;;;;3.45;2.42;;;22.70;70.80;;;;;;5093421;28;20052;-64
2022/09/11 09:30:22;;;;;;;4.40;2.58;;;22.70;70.80;;;;;;5094319;28;20059;-64
2022/09/11 09:32:54;;;;;;;5.10;3.00;;;22.70;70.80;;;;;;5094066;28;20058;-64
2022/09/11 09:35:38;;;;;;;4.55;2.42;;;22.70;70.80;;;;;;5093231;28;20097;-66
2022/09/11 09:38:10;;;;;;;4.68;2.65;;;22.70;70.80;;;;;;5092806;28;20063;-64
2022/09/11 09:41:02;;;;;;;5.70;2.45;;;22.80;70.60;;;;;;5094299;28;20082;-64
2022/09/11 09:43:36;;;;;;;4.15;2.35;;;22.80;70.60;;;;;;5093410;28;20131;-64
2022/09/11 09:46:08;;;;;;;3.25;2.25;;;22.80;70.50;;;;;;5092849;28;20047;-63
2022/09/11 09:48:35;;;;;;;4.20;2.60;;;22.80;70.50;;;;;;5093941;28;20549;-64
2022/09/11 09:51:02;;;;;;;4.20;2.30;;;22.80;70.40;;;;;;5092827;28;20100;-67
2022/09/11 09:53:32;;;;;;;5.53;3.20;;;22.80;70.30;;;;;;5093305;28;20040;-65
2022/09/11 09:55:59;;;;;;;5.43;3.30;;;22.80;70.20;;;;;;5094695;28;20077;-65
2022/09/11 09:58:26;;;;;;;5.85;2.90;;;22.80;70.10;;;;;;5090555;28;20040;-65
2022/09/11 10:00:51;;;;;;;6.43;3.03;;;22.80;69.90;;;;;;5092002;28;20051;-64
2022/09/11 10:03:19;;;;;;;7.15;2.85;;;22.80;69.80;;;;;;5125714;27;20047;-64
2022/09/11 10:05:45;;;;;;;6.25;2.97;;;22.80;69.80;;;;;;5093033;28;20055;-64
2022/09/11 10:08:30;;;;;;;7.32;2.60;;;22.80;69.80;;;;;;5091778;28;20123;-64
2022/09/11 10:11:06;;;;;;;5.63;2.75;;;22.80;69.60;;;;;;5091373;28;20043;-64
2022/09/11 10:13:42;;;;;;;4.72;2.90;;;22.80;69.90;;;;;;5091397;28;20047;-63
2022/09/11 10:16:24;;;;;;;7.75;2.83;;;22.80;70.00;;;;;;5093231;28;20036;-64
2022/09/11 10:18:50;;;;;;;6.78;2.58;;;22.80;70.30;;;;;;5093609;28;20048;-64
2022/09/11 10:21:36;;;;;;;7.30;2.88;;;22.80;70.30;;;;;;5091138;28;20043;-64
2022/09/11 10:24:08;;;;;;;4.75;2.55;;;22.90;70.70;;;;;;5094037;28;20048;-64
2022/09/11 10:26:37;;;;;;;5.05;2.40;;;22.80;70.50;;;;;;5091790;28;20131;-65
2022/09/11 10:29:25;;;;;;;7.40;3.08;;;22.80;70.50;;;;;;5092433;28;20075;-64
2022/09/11 10:31:58;;;;;;;5.88;2.80;;;22.90;70.80;;;;;;5092994;28;20040;-65
2022/09/11 10:34:28;;;;;;;5.97;3.00;;;22.90;70.80;;;;;;5090049;28;20051;-64
2022/09/11 10:37:22;;;;;;;16.60;3.85;;;22.90;71.00;;;;;;5090276;28;20044;-64
2022/09/11 10:39:48;;;;;;;6.30;2.50;;;22.90;70.90;;;;;;5077222;28;20076;-65
2022/09/11 10:42:24;;;;;;;6.03;3.00;;;23.00;71.00;;;;;;5091349;28;20063;-65
2022/09/11 10:44:50;;;;;;;4.25;2.53;;;22.90;71.00;;;;;;5091522;28;20086;-65
2022/09/11 10:47:27;;;;;;;4.63;2.50;;;22.90;71.00;;;;;;5091618;28;20067;-64
2022/09/11 10:50:19;;;;;;;5.47;2.63;;;23.00;71.00;;;;;;5091001;28;20044;-64
2022/09/11 10:53:10;;;;;;;5.72;2.38;;;23.00;70.80;;;;;;5072939;28;20037;-64
2022/09/11 10:55:39;;;;;;;3.63;2.20;;;23.00;70.60;;;;;;5056372;28;20197;-64
2022/09/11 10:58:17;;;;;;;5.53;2.45;;;22.90;70.30;;;;;;5072277;28;20205;-64
2022/09/11 11:00:43;;;;;;;3.67;2.38;;;22.90;70.00;;;;;;5055811;28;20052;-64
2022/09/11 11:03:11;;;;;;;5.88;2.53;;;22.90;69.90;;;;;;5072080;28;20049;-64
2022/09/11 11:05:49;;;;;;;4.47;2.40;;;22.90;69.80;;;;;;5073119;28;20150;-63
2022/09/11 11:08:58;;;;;;;4.55;2.08;;;22.90;69.70;;;;;;5072659;28;20382;-63
2022/09/11 11:11:58;;;;;;;3.97;1.98;;;23.00;69.70;;;;;;5071988;28;20055;-64
2022/09/11 11:14:31;;;;;;;4.43;2.45;;;23.00;69.70;;;;;;5072479;28;20047;-64
2022/09/11 11:17:15;;;;;;;4.55;2.35;;;23.00;69.70;;;;;;5072487;28;20053;-63
2022/09/11 11:19:45;;;;;;;6.22;2.22;;;23.00;69.70;;;;;;5072830;28;20051;-63
2022/09/11 11:22:42;;;;;;;3.58;2.28;;;23.00;69.60;;;;;;5071050;28;20123;-66
2022/09/11 11:25:46;;;;;;;4.80;2.08;;;23.00;69.50;;;;;;5072685;28;20041;-65
2022/09/11 11:28:20;;;;;;;3.90;1.98;;;23.00;69.40;;;;;;5040786;28;20048;-65
2022/09/11 11:31:08;;;;;;;3.08;1.83;;;23.00;69.20;;;;;;5109458;27;20121;-64
2022/09/11 11:33:52;;;;;;;5.15;1.95;;;23.00;68.90;;;;;;5089742;28;20063;-64
2022/09/11 11:36:36;;;;;;;5.10;1.80;;;23.00;68.70;;;;;;5089173;28;20036;-64
2022/09/11 11:39:14;;;;;;;5.10;1.75;;;23.00;68.40;;;;;;5071150;28;20029;-63
2022/09/11 11:41:43;;;;;;;4.68;1.80;;;23.00;68.40;;;;;;5089182;28;20051;-64
2022/09/11 11:44:14;;;;;;;3.55;1.80;;;23.00;68.30;;;;;;5088296;28;20121;-64
2022/09/11 11:46:51;;;;;;;3.90;1.73;;;23.00;68.10;;;;;;5054979;28;20051;-64
2022/09/11 11:49:38;;;;;;;3.38;1.90;;;23.00;68.00;;;;;;5071029;28;20522;-65
2022/09/11 11:52:14;;;;;;;4.15;1.70;;;22.90;67.80;;;;;;5070907;28;20060;-65
2022/09/11 11:54:51;;;;;;;5.18;1.65;;;22.90;67.90;;;;;;5047211;28;20051;-64
2022/09/11 11:57:21;;;;;;;5.50;2.00;;;22.90;67.90;;;;;;5072196;28;20036;-64
2022/09/11 11:59:52;;;;;;;6.00;1.90;;;22.90;68.10;;;;;;5034702;28;20048;-65
2022/09/11 12:02:29;;;;;;;5.32;1.85;;;22.90;68.30;;;;;;5062185;28;20598;-64
2022/09/11 12:05:01;;;;;;;6.32;1.85;;;22.90;68.50;;;;;;5070604;28;20052;-63
2022/09/11 12:07:31;;;;;;;3.35;1.85;;;22.90;68.60;;;;;;5054764;28;20044;-62
2022/09/11 12:09:58;;;;;;;4.72;2.17;;;22.90;68.70;;;;;;5088565;28;20048;-64
2022/09/11 12:12:28;;;;;;;5.63;2.30;;;23.00;68.80;;;;;;5053074;28;20047;-63
2022/09/11 12:15:04;;;;;;;5.68;2.08;;;23.00;68.90;;;;;;5089128;28;20036;-63
2022/09/11 12:17:33;;;;;;;6.60;2.20;;;23.00;68.90;;;;;;5070336;28;20506;-65
2022/09/11 12:20:13;;;;;;;9.15;2.40;;;23.00;69.00;;;;;;5053593;28;20048;-65
2022/09/11 12:22:48;;;;;;;6.05;2.25;;;22.90;69.10;;;;;;5088993;28;20040;-65
2022/09/11 12:25:20;;;;;;;5.22;2.30;;;23.00;69.20;;;;;;5070471;28;20111;-66
2022/09/11 12:27:52;;;;;;;9.13;2.78;;;23.00;69.20;;;;;;5087392;28;20044;-64
2022/09/11 12:30:19;;;;;;;7.78;2.70;;;23.00;69.20;;;;;;5088033;28;20071;-65
2022/09/11 12:32:48;;;;;;;7.78;2.85;;;23.00;69.20;;;;;;5088256;28;20074;-65
2022/09/11 12:35:42;;;;;;;9.48;3.63;;;23.00;69.30;;;;;;5069521;28;20083;-65
2022/09/11 12:38:07;;;;;;;6.72;2.45;;;23.00;69.30;;;;;;5070041;28;20037;-65
2022/09/11 12:40:49;;;;;;;8.60;2.50;;;23.10;69.30;;;;;;5083202;28;20043;-65
2022/09/11 12:43:19;;;;;;;7.82;2.58;;;23.10;69.30;;;;;;5056093;28;20045;-66
2022/09/11 12:45:47;;;;;;;6.82;2.50;;;23.10;69.30;;;;;;5055045;28;20052;-66
2022/09/11 12:48:16;;;;;;;9.60;3.05;;;23.10;69.30;;;;;;5054090;28;20045;-64
2022/09/11 12:50:49;;;;;;;7.68;2.80;;;23.10;69.30;;;;;;5049414;28;20055;-64
2022/09/11 12:53:18;;;;;;;9.07;2.80;;;23.10;69.20;;;;;;5063110;28;20497;-63
2022/09/11 12:55:57;;;;;;;6.93;2.80;;;23.10;69.20;;;;;;5055693;28;20036;-62
2022/09/11 12:58:32;;;;;;;4.28;2.50;;;23.10;69.10;;;;;;5074317;28;20041;-63
2022/09/11 13:01:13;;;;;;;5.38;2.40;;;23.10;68.80;;;;;;5041492;28;20041;-63
2022/09/11 13:03:56;;;;;;;4.55;2.38;;;23.00;68.40;;;;;;5074204;28;20044;-63
2022/09/11 13:06:39;;;;;;;6.45;2.20;;;23.00;68.20;;;;;;5057579;28;20427;-62
2022/09/11 13:09:04;;;;;;;6.38;2.17;;;23.00;67.90;;;;;;5055964;28;20488;-63